Time;durP1;ratioP1;P1;durP2;ratioP2;P2;SDS_P1;SDS_P2;PMS_P1;PMS_P2;Temp;Humidity;BMP_temperature;BMP_pressure;BME280_temperature;BME280_humidity;BME280_pressure;Samples;Min_cycle;Max_cycle;Signal;HPM_P1;HPM_P2
2021/06/09 00:00:42;;;;;;;0.50;0.40;;;;;;;16.97;100.00;100695.06;4981845;28;20525;-53
2021/06/09 00:03:09;;;;;;;0.40;0.30;;;;;;;17.06;100.00;100694.63;4984828;28;21005;-53
2021/06/09 00:05:36;;;;;;;3.70;0.80;;;;;;;17.05;100.00;100707.19;4987652;28;20454;-53
2021/06/09 00:08:02;;;;;;;0.40;0.20;;;;;;;17.21;100.00;100701.06;4984394;28;20454;-53
2021/06/09 00:10:29;;;;;;;0.40;0.20;;;;;;;17.03;100.00;100702.84;4980829;28;20446;-53
2021/06/09 00:12:55;;;;;;;0.60;0.60;;;;;;;16.91;100.00;100703.44;4984619;28;20956;-53
2021/06/09 00:15:22;;;;;;;0.40;0.20;;;;;;;16.71;100.00;100704.38;4987582;28;20458;-53
2021/06/09 00:17:49;;;;;;;0.40;0.20;;;;;;;16.96;100.00;100702.25;4999074;28;21010;-53
2021/06/09 00:20:21;;;;;;;0.40;0.30;;;;;;;16.91;100.00;100707.00;4980847;28;20935;-53
2021/06/09 00:22:48;;;;;;;0.60;0.43;;;;;;;16.98;100.00;100710.25;4983422;28;20446;-52
2021/06/09 00:25:16;;;;;;;0.40;0.30;;;;;;;16.89;100.00;100719.63;4988676;28;20509;-53
2021/06/09 00:27:44;;;;;;;3.23;1.77;;;;;;;17.00;100.00;100719.13;4983140;28;21019;-53
2021/06/09 00:30:18;;;;;;;0.40;0.20;;;;;;;16.66;100.00;100717.13;5006239;28;20446;-53
2021/06/09 00:32:44;;;;;;;0.40;0.20;;;;;;;16.53;100.00;100716.81;4980653;28;20489;-53
2021/06/09 00:35:12;;;;;;;7.70;2.10;;;;;;;16.72;100.00;100714.16;4987340;28;20454;-53
2021/06/09 00:37:38;;;;;;;0.53;0.40;;;;;;;16.54;100.00;100715.88;4988552;28;20466;-54
2021/06/09 00:40:09;;;;;;;0.40;0.20;;;;;;;16.54;100.00;100721.25;4979988;28;20547;-53
2021/06/09 00:42:36;;;;;;;0.40;0.20;;;;;;;16.55;100.00;100709.56;4980907;28;20454;-53
2021/06/09 00:45:06;;;;;;;0.40;0.20;;;;;;;16.60;100.00;100712.94;4986616;28;20897;-53
2021/06/09 00:47:33;;;;;;;0.43;0.30;;;;;;;16.39;100.00;100719.25;4986041;28;20520;-53
2021/06/09 00:50:00;;;;;;;0.40;0.20;;;;;;;16.47;100.00;100720.66;4982102;28;20528;-53
2021/06/09 00:52:28;;;;;;;0.40;0.20;;;;;;;16.56;100.00;100720.22;4980531;28;20536;-54
2021/06/09 00:54:55;;;;;;;0.40;0.20;;;;;;;16.65;100.00;100727.00;4985210;28;20799;-53
2021/06/09 00:57:24;;;;;;;0.40;0.20;;;;;;;16.55;100.00;100726.53;4979548;28;20503;-53
2021/06/09 00:59:51;;;;;;;0.40;0.30;;;;;;;16.42;100.00;100728.03;4984106;28;20477;-53
2021/06/09 01:02:18;;;;;;;0.40;0.20;;;;;;;16.50;100.00;100725.88;4986953;28;20474;-53
2021/06/09 01:04:44;;;;;;;0.40;0.20;;;;;;;16.39;100.00;100720.13;4983295;28;20457;-53
2021/06/09 01:07:12;;;;;;;0.40;0.20;;;;;;;16.38;100.00;100718.41;4980038;28;20964;-53
2021/06/09 01:09:39;;;;;;;0.40;0.20;;;;;;;16.19;100.00;100722.88;4984171;28;20474;-53
2021/06/09 01:12:06;;;;;;;0.40;0.20;;;;;;;16.17;100.00;100724.72;4986762;28;20490;-53
2021/06/09 01:14:33;;;;;;;0.40;0.30;;;;;;;16.33;100.00;100720.44;4982196;28;20514;-54
2021/06/09 01:17:00;;;;;;;0.40;0.20;;;;;;;16.41;100.00;100715.56;4979770;28;20508;-53
2021/06/09 01:19:26;;;;;;;0.40;0.30;;;;;;;16.34;100.00;100716.81;4983269;28;20506;-54
2021/06/09 01:21:53;;;;;;;0.40;0.20;;;;;;;16.28;100.00;100728.66;4977344;28;20450;-53
2021/06/09 01:24:20;;;;;;;0.40;0.20;;;;;;;16.44;100.00;100722.59;4982880;28;20492;-53
2021/06/09 01:26:46;;;;;;;0.40;0.30;;;;;;;16.38;100.00;100715.72;4986376;28;20556;-53
2021/06/09 01:29:13;;;;;;;0.90;0.73;;;;;;;16.16;100.00;100717.59;4995542;28;20469;-53
2021/06/09 01:31:40;;;;;;;0.40;0.20;;;;;;;16.13;100.00;100710.56;4989609;28;20528;-53
2021/06/09 01:34:07;;;;;;;0.40;0.30;;;;;;;16.29;100.00;100706.25;4984901;28;20460;-53
2021/06/09 01:36:39;;;;;;;0.40;0.20;;;;;;;16.42;100.00;100722.66;4980049;28;20986;-53
2021/06/09 01:39:16;;;;;;;7.53;2.10;;;;;;;16.25;100.00;100718.09;4980537;28;20474;-53
2021/06/09 01:41:44;;;;;;;0.40;0.20;;;;;;;16.24;100.00;100726.19;4979641;28;20448;-53
2021/06/09 01:44:11;;;;;;;0.40;0.40;;;;;;;16.34;100.00;100726.66;4979985;28;20450;-53
2021/06/09 01:46:39;;;;;;;1.27;1.17;;;;;;;15.96;100.00;100719.38;4984742;28;20832;-53
2021/06/09 01:49:07;;;;;;;0.40;0.20;;;;;;;15.82;100.00;100729.84;4986005;28;20484;-52
2021/06/09 01:51:35;;;;;;;0.40;0.27;;;;;;;15.91;100.00;100724.09;4981606;28;20526;-53
2021/06/09 01:54:06;;;;;;;0.40;0.20;;;;;;;16.02;100.00;100725.41;4979579;28;20454;-53
2021/06/09 01:56:34;;;;;;;0.40;0.20;;;;;;;15.67;100.00;100728.69;4983231;28;20481;-53
2021/06/09 01:59:21;;;;;;;0.50;0.30;;;;;;;15.85;100.00;100721.66;4988809;28;20525;-52
2021/06/09 02:01:49;;;;;;;0.50;0.40;;;;;;;16.05;100.00;100723.47;4991643;28;20445;-53
2021/06/09 02:04:17;;;;;;;0.40;0.40;;;;;;;15.93;100.00;100722.19;4985919;28;20488;-53
2021/06/09 02:06:45;;;;;;;0.40;0.20;;;;;;;15.82;100.00;100718.25;4986234;28;21049;-53
2021/06/09 02:09:13;;;;;;;0.50;0.40;;;;;;;15.83;100.00;100714.63;4993031;28;20476;-52
2021/06/09 02:11:41;;;;;;;3.43;1.13;;;;;;;15.92;100.00;100722.28;4992549;28;20489;-53
2021/06/09 02:14:09;;;;;;;0.40;0.20;;;;;;;15.63;100.00;100727.06;4992429;28;20873;-52
2021/06/09 02:16:41;;;;;;;2.03;0.67;;;;;;;15.68;100.00;100716.16;4992976;28;20504;-53
2021/06/09 02:19:08;;;;;;;0.40;0.23;;;;;;;15.79;100.00;100723.75;4986996;28;20567;-53
2021/06/09 02:21:37;;;;;;;0.60;0.60;;;;;;;15.87;100.00;100716.22;4985570;28;20504;-53
2021/06/09 02:24:05;;;;;;;0.40;0.20;;;;;;;15.80;100.00;100721.00;4991077;28;20478;-53
2021/06/09 02:26:33;;;;;;;2.10;0.87;;;;;;;15.57;100.00;100721.06;4992140;28;20456;-53
2021/06/09 02:29:01;;;;;;;0.40;0.27;;;;;;;15.54;100.00;100719.38;4997568;28;20507;-52
2021/06/09 02:31:28;;;;;;;0.40;0.20;;;;;;;15.66;100.00;100718.91;4999365;28;20864;-54
2021/06/09 02:33:55;;;;;;;0.40;0.20;;;;;;;15.77;100.00;100725.63;4988652;28;20449;-53
2021/06/09 02:36:23;;;;;;;0.40;0.20;;;;;;;15.73;100.00;100718.63;4986341;28;20492;-53
2021/06/09 02:38:50;;;;;;;0.87;0.87;;;;;;;15.65;100.00;100713.59;4988523;28;21066;-53
2021/06/09 02:41:17;;;;;;;0.40;0.27;;;;;;;15.60;100.00;100710.22;4992252;28;20959;-53
2021/06/09 02:43:45;;;;;;;0.40;0.20;;;;;;;15.64;100.00;100714.56;4989314;28;20946;-53
2021/06/09 02:46:16;;;;;;;0.80;0.80;;;;;;;15.59;100.00;100717.41;4984905;28;20434;-53
2021/06/09 02:48:47;;;;;;;0.40;0.20;;;;;;;15.41;100.00;100718.16;4987137;28;20995;-53
2021/06/09 02:51:18;;;;;;;0.40;0.20;;;;;;;15.49;100.00;100716.03;4992313;28;20978;-54
2021/06/09 02:53:47;;;;;;;1.37;1.27;;;;;;;15.57;100.00;100715.69;4991785;28;20449;-53
2021/06/09 02:56:37;;;;;;;1.90;1.40;;;;;;;15.66;100.00;100713.53;4992335;28;20951;-54
2021/06/09 02:59:17;;;;;;;0.40;0.27;;;;;;;15.83;100.00;100714.63;4981618;28;20470;-53
2021/06/09 03:01:50;;;;;;;0.40;0.20;;;;;;;15.77;100.00;100707.72;4990838;28;20504;-54
2021/06/09 03:04:27;;;;;;;2.53;2.43;;;;;;;15.73;100.00;100710.59;4985265;28;20520;-53
2021/06/09 03:07:21;;;;;;;0.50;0.40;;;;;;;15.74;100.00;100713.19;4985209;28;20446;-54
2021/06/09 03:09:56;;;;;;;2.20;0.93;;;;;;;15.79;100.00;100704.97;4986832;28;20486;-54
2021/06/09 03:12:37;;;;;;;0.40;0.20;;;;;;;15.60;100.00;100713.78;4988542;28;20494;-54
2021/06/09 03:15:14;;;;;;;0.40;0.20;;;;;;;15.68;100.00;100703.63;4988759;28;20453;-53
2021/06/09 03:18:04;;;;;;;0.43;0.30;;;;;;;15.64;100.00;100706.50;4984866;28;20448;-54
2021/06/09 03:20:44;;;;;;;0.50;0.40;;;;;;;15.67;100.00;100707.25;4982030;28;20480;-54
2021/06/09 03:23:10;;;;;;;1.03;1.03;;;;;;;15.85;100.00;100705.56;4982277;28;20442;-54
2021/06/09 03:25:53;;;;;;;0.40;0.20;;;;;;;15.59;100.00;100720.09;4991430;28;20453;-53
2021/06/09 03:28:21;;;;;;;0.40;0.20;;;;;;;15.62;100.00;100719.97;4984410;28;20472;-53
2021/06/09 03:30:57;;;;;;;1.23;1.13;;;;;;;15.62;100.00;100713.72;5003942;28;20453;-54
2021/06/09 03:33:28;;;;;;;0.40;0.20;;;;;;;15.43;100.00;100710.06;4981615;28;20528;-53
2021/06/09 03:36:19;;;;;;;0.40;0.20;;;;;;;15.55;100.00;100714.91;4982635;28;20451;-53
2021/06/09 03:39:00;;;;;;;0.40;0.20;;;;;;;15.69;100.00;100712.53;4975404;28;21007;-51
2021/06/09 03:41:56;;;;;;;0.40;0.40;;;;;;;15.65;100.00;100706.44;5003372;28;20975;-51
2021/06/09 03:44:30;;;;;;;0.40;0.20;;;;;;;15.63;100.00;100705.63;4987849;28;20462;-51
2021/06/09 03:46:58;;;;;;;0.40;0.20;;;;;;;15.59;100.00;100709.38;4975142;28;20447;-52
2021/06/09 03:49:26;;;;;;;0.40;0.30;;;;;;;15.68;100.00;100702.75;4988153;28;20504;-51
2021/06/09 03:51:54;;;;;;;0.40;0.23;;;;;;;15.75;100.00;100712.25;4986105;28;20528;-52
2021/06/09 03:54:22;;;;;;;1.13;1.13;;;;;;;15.72;100.00;100707.03;4981409;28;20454;-51
2021/06/09 03:56:51;;;;;;;0.40;0.20;;;;;;;15.83;100.00;100711.94;4982578;28;20450;-51
2021/06/09 03:59:20;;;;;;;0.40;0.30;;;;;;;15.67;100.00;100711.72;4987434;28;20856;-51
2021/06/09 04:01:48;;;;;;;0.63;0.63;;;;;;;15.56;100.00;100712.16;4986930;28;20508;-51
2021/06/09 04:04:18;;;;;;;0.73;0.73;;;;;;;15.82;100.00;100702.16;4981182;28;20868;-51
2021/06/09 04:06:45;;;;;;;0.40;0.30;;;;;;;15.80;100.00;100704.91;4982062;28;20421;-51
2021/06/09 04:09:17;;;;;;;0.40;0.30;;;;;;;15.87;100.00;100705.50;4975032;28;20522;-51
2021/06/09 04:11:45;;;;;;;0.53;0.50;;;;;;;15.97;100.00;100706.84;4988072;28;20540;-51
2021/06/09 04:14:17;;;;;;;0.40;0.20;;;;;;;16.27;100.00;100704.59;4982292;28;21034;-51
2021/06/09 04:16:45;;;;;;;1.27;1.27;;;;;;;16.23;100.00;100709.22;4980778;28;20888;-52
2021/06/09 04:19:14;;;;;;;0.50;0.40;;;;;;;16.36;100.00;100706.88;4985550;28;20471;-51
2021/06/09 04:21:41;;;;;;;0.40;0.20;;;;;;;16.21;100.00;100713.81;4987499;28;20569;-50
2021/06/09 04:24:10;;;;;;;0.40;0.20;;;;;;;16.19;100.00;100718.38;4983669;28;20454;-51
2021/06/09 04:26:37;;;;;;;0.40;0.30;;;;;;;16.29;100.00;100714.31;4987100;28;20458;-51
2021/06/09 04:29:04;;;;;;;0.60;0.50;;;;;;;16.42;100.00;100720.00;4994238;28;20902;-50
2021/06/09 04:31:33;;;;;;;0.50;0.50;;;;;;;16.73;100.00;100714.13;4993300;28;20462;-51
2021/06/09 04:34:00;;;;;;;0.40;0.20;;;;;;;16.85;100.00;100720.69;4984845;28;20504;-51
2021/06/09 04:36:27;;;;;;;0.40;0.20;;;;;;;16.98;100.00;100718.31;4981394;28;20457;-52
2021/06/09 04:38:54;;;;;;;0.50;0.40;;;;;;;17.25;100.00;100716.97;4984135;28;20521;-53
2021/06/09 04:41:21;;;;;;;0.40;0.20;;;;;;;17.34;100.00;100718.34;4987343;28;20512;-52
2021/06/09 04:43:48;;;;;;;0.40;0.30;;;;;;;17.27;100.00;100719.56;4984960;28;20453;-52
2021/06/09 04:46:23;;;;;;;0.40;0.20;;;;;;;17.28;100.00;100722.22;4980577;28;20809;-52
2021/06/09 04:49:05;;;;;;;1.10;1.10;;;;;;;17.24;100.00;100725.97;4981755;28;20469;-52
2021/06/09 04:51:35;;;;;;;0.90;0.90;;;;;;;17.39;100.00;100724.34;4981989;28;20450;-52
2021/06/09 04:54:04;;;;;;;3.27;0.97;;;;;;;17.77;100.00;100726.00;4980952;28;20841;-53
2021/06/09 04:56:37;;;;;;;0.40;0.30;;;;;;;17.89;100.00;100721.81;4984943;28;20461;-51
2021/06/09 04:59:07;;;;;;;0.40;0.30;;;;;;;17.98;100.00;100721.34;4986924;28;20470;-52
2021/06/09 05:01:38;;;;;;;0.40;0.20;;;;;;;17.99;100.00;100723.09;4984479;28;20484;-52
2021/06/09 05:04:05;;;;;;;0.40;0.20;;;;;;;18.01;100.00;100728.38;4981524;28;20474;-52
2021/06/09 05:06:33;;;;;;;1.07;1.03;;;;;;;17.91;100.00;100727.97;4983219;28;20458;-52
2021/06/09 05:09:00;;;;;;;0.40;0.20;;;;;;;18.04;100.00;100721.00;4987481;28;20541;-52
2021/06/09 05:11:38;;;;;;;0.40;0.30;;;;;;;18.40;100.00;100724.53;4985510;28;20453;-52
2021/06/09 05:14:19;;;;;;;0.40;0.20;;;;;;;18.74;100.00;100723.56;4980491;28;20879;-52
2021/06/09 05:16:50;;;;;;;0.40;0.20;;;;;;;19.17;100.00;100724.72;4980078;28;20450;-52
2021/06/09 05:19:21;;;;;;;0.67;0.67;;;;;;;20.06;98.41;100725.78;4984178;28;20474;-52
2021/06/09 05:21:51;;;;;;;2.20;0.67;;;;;;;19.90;95.90;100735.75;4986937;28;21070;-52
2021/06/09 05:24:21;;;;;;;1.07;1.03;;;;;;;20.35;95.00;100732.06;4983781;28;20435;-52
2021/06/09 05:26:47;;;;;;;2.40;1.63;;;;;;;21.21;93.14;100731.06;4985608;28;21036;-52
2021/06/09 05:29:16;;;;;;;0.40;0.20;;;;;;;21.47;91.17;100726.66;4995837;28;20534;-52
2021/06/09 05:31:49;;;;;;;0.50;0.43;;;;;;;21.70;88.83;100727.81;4989790;28;20470;-52
2021/06/09 05:34:18;;;;;;;0.50;0.30;;;;;;;21.62;88.94;100738.28;4985073;28;20467;-52
2021/06/09 05:36:45;;;;;;;0.50;0.30;;;;;;;21.56;89.54;100736.88;4980758;28;20889;-52
2021/06/09 05:39:15;;;;;;;1.40;0.93;;;;;;;21.32;89.69;100727.69;4980387;28;20478;-52
2021/06/09 05:41:42;;;;;;;0.50;0.30;;;;;;;21.69;88.33;100731.50;4986030;28;20459;-52
2021/06/09 05:44:14;;;;;;;8.43;3.80;;;;;;;21.53;89.22;100725.41;4986622;28;20457;-52
2021/06/09 05:46:44;;;;;;;0.57;0.57;;;;;;;21.20;89.58;100734.72;4981839;28;20449;-52
2021/06/09 05:49:24;;;;;;;0.40;0.20;;;;;;;21.54;89.48;100735.25;4979714;28;20493;-51
2021/06/09 05:51:52;;;;;;;2.40;2.30;;;;;;;21.62;87.48;100734.72;4982443;28;20495;-52
2021/06/09 05:54:21;;;;;;;0.50;0.30;;;;;;;21.50;87.96;100737.28;4986583;28;20476;-52
2021/06/09 05:56:48;;;;;;;0.93;0.93;;;;;;;21.80;87.95;100734.34;4975938;28;20462;-52
2021/06/09 05:59:16;;;;;;;0.63;0.63;;;;;;;22.55;85.96;100730.97;4986157;28;20478;-51
2021/06/09 06:01:44;;;;;;;0.50;0.40;;;;;;;21.92;87.00;100732.63;4985024;28;20842;-52
2021/06/09 06:04:11;;;;;;;0.40;0.30;;;;;;;21.83;87.64;100735.97;4979678;28;20959;-52
2021/06/09 06:06:38;;;;;;;0.50;0.30;;;;;;;22.29;86.87;100728.28;4980605;28;20860;-52
2021/06/09 06:09:05;;;;;;;1.50;1.40;;;;;;;22.38;85.51;100732.19;4986413;28;20448;-52
2021/06/09 06:11:34;;;;;;;1.03;0.87;;;;;;;22.01;87.53;100740.13;4985729;28;20428;-52
2021/06/09 06:14:06;;;;;;;0.50;0.30;;;;;;;22.36;87.10;100726.00;4978315;28;20877;-52
2021/06/09 06:16:33;;;;;;;0.40;0.30;;;;;;;22.35;86.89;100727.84;4979358;28;20437;-53
2021/06/09 06:19:00;;;;;;;0.40;0.30;;;;;;;22.25;86.70;100729.47;4985340;28;21046;-53
2021/06/09 06:21:27;;;;;;;0.50;0.20;;;;;;;22.05;87.82;100725.41;4985947;28;20450;-52
2021/06/09 06:23:55;;;;;;;0.40;0.30;;;;;;;22.21;87.90;100733.38;4980333;28;20453;-52
2021/06/09 06:26:24;;;;;;;0.93;0.93;;;;;;;22.63;85.57;100731.31;4988121;28;20929;-53
2021/06/09 06:28:55;;;;;;;0.50;0.20;;;;;;;22.71;86.18;100734.31;4989015;28;20494;-51
2021/06/09 06:31:27;;;;;;;1.77;1.67;;;;;;;23.29;83.43;100730.06;4996639;28;20427;-53
2021/06/09 06:33:57;;;;;;;0.50;0.40;;;;;;;22.58;84.64;100731.63;4983316;28;20473;-53
2021/06/09 06:36:26;;;;;;;0.40;0.20;;;;;;;23.05;84.46;100736.34;4989573;28;20448;-53
2021/06/09 06:38:53;;;;;;;0.50;0.30;;;;;;;22.68;84.98;100726.41;4981903;28;20475;-53
2021/06/09 06:41:21;;;;;;;0.40;0.27;;;;;;;22.77;84.43;100723.91;4986032;28;20486;-53
2021/06/09 06:43:50;;;;;;;2.30;0.70;;;;;;;22.67;84.28;100721.97;4984488;28;20416;-53
2021/06/09 06:46:21;;;;;;;0.60;0.57;;;;;;;23.16;83.64;100729.25;4980520;28;20452;-63
2021/06/09 06:48:52;;;;;;;0.50;0.20;;;;;;;23.19;83.06;100724.50;4983996;28;20561;-53
2021/06/09 06:51:20;;;;;;;0.40;0.20;;;;;;;23.47;80.39;100733.28;4989942;28;20527;-54
2021/06/09 06:53:49;;;;;;;0.40;0.20;;;;;;;23.26;79.71;100727.59;4988370;28;20555;-53
2021/06/09 06:56:17;;;;;;;2.10;2.00;;;;;;;23.13;81.67;100730.34;4988767;28;20995;-54
2021/06/09 06:58:48;;;;;;;0.50;0.40;;;;;;;23.83;80.46;100726.91;4990037;28;20473;-53
2021/06/09 07:01:27;;;;;;;0.43;0.27;;;;;;;23.57;80.38;100727.09;4987821;28;20992;-53
2021/06/09 07:03:55;;;;;;;0.80;0.80;;;;;;;23.58;79.71;100730.66;4976799;28;20425;-54
2021/06/09 07:06:22;;;;;;;0.47;0.30;;;;;;;23.54;80.56;100723.69;4986439;28;20456;-53
2021/06/09 07:08:49;;;;;;;0.50;0.27;;;;;;;24.04;79.50;100727.13;4982692;28;20535;-53
2021/06/09 07:11:20;;;;;;;0.80;0.63;;;;;;;23.48;80.04;100725.03;4983718;28;20429;-52
2021/06/09 07:13:49;;;;;;;0.57;0.57;;;;;;;23.79;79.32;100722.72;4989157;28;20473;-53
2021/06/09 07:16:16;;;;;;;1.13;1.03;;;;;;;23.99;79.32;100727.50;4987383;28;20817;-52
2021/06/09 07:18:45;;;;;;;0.50;0.30;;;;;;;23.93;80.14;100731.53;4982370;28;20841;-53
2021/06/09 07:21:14;;;;;;;0.50;0.40;;;;;;;23.74;80.74;100725.78;4983949;28;20432;-53
2021/06/09 07:23:42;;;;;;;0.80;0.70;;;;;;;23.93;79.71;100731.53;4987706;28;20450;-53
2021/06/09 07:26:12;;;;;;;0.50;0.20;;;;;;;23.92;82.29;100728.94;4988553;28;20474;-53
2021/06/09 07:28:50;;;;;;;0.60;0.40;;;;;;;23.78;81.19;100735.41;4988850;28;20855;-53
2021/06/09 07:31:39;;;;;;;0.93;0.93;;;;;;;24.02;80.66;100724.53;4999038;28;20464;-53
2021/06/09 07:34:06;;;;;;;3.17;1.03;;;;;;;23.92;82.49;100728.94;4986199;28;20467;-53
2021/06/09 07:36:42;;;;;;;0.43;0.20;;;;;;;23.80;81.70;100721.72;4983197;28;20435;-53
2021/06/09 07:39:15;;;;;;;1.07;1.07;;;;;;;24.67;79.95;100725.75;4982748;28;20478;-53
2021/06/09 07:41:43;;;;;;;0.50;0.30;;;;;;;24.48;81.31;100724.50;4982509;28;20445;-52
2021/06/09 07:44:12;;;;;;;0.50;0.20;;;;;;;24.18;80.71;100727.78;4982041;28;20929;-53
2021/06/09 07:46:40;;;;;;;0.50;0.27;;;;;;;24.75;80.61;100726.00;4987242;28;20454;-53
2021/06/09 07:49:09;;;;;;;0.70;0.70;;;;;;;24.81;79.21;100728.25;4988551;28;20508;-53
2021/06/09 07:51:36;;;;;;;0.40;0.30;;;;;;;24.74;80.54;100729.72;4982612;28;20428;-53
2021/06/09 07:54:05;;;;;;;0.40;0.30;;;;;;;24.59;81.21;100725.50;4981794;28;20465;-54
2021/06/09 07:56:37;;;;;;;0.50;0.40;;;;;;;24.81;80.60;100730.97;4985575;28;20437;-54
2021/06/09 07:59:06;;;;;;;0.50;0.37;;;;;;;25.32;78.19;100733.13;4988120;28;20441;-53
2021/06/09 08:01:34;;;;;;;0.47;0.20;;;;;;;25.56;76.51;100731.09;4985430;28;20454;-54
2021/06/09 08:04:02;;;;;;;0.40;0.20;;;;;;;25.42;76.54;100733.22;4990216;28;20447;-54
2021/06/09 08:06:30;;;;;;;0.60;0.60;;;;;;;25.56;76.01;100724.78;4986097;28;20453;-54
2021/06/09 08:08:56;;;;;;;0.50;0.30;;;;;;;25.37;76.66;100728.19;4981410;28;20448;-54
2021/06/09 08:11:23;;;;;;;0.50;0.30;;;;;;;25.06;78.28;100727.13;4983262;28;20868;-54
2021/06/09 08:13:50;;;;;;;0.40;0.20;;;;;;;25.05;78.14;100731.69;4979981;28;20521;-54
2021/06/09 08:16:19;;;;;;;0.60;0.60;;;;;;;25.17;75.93;100720.78;4994657;28;20453;-54
2021/06/09 08:18:48;;;;;;;0.50;0.40;;;;;;;25.53;76.25;100725.03;4981085;28;20440;-54
2021/06/09 08:21:20;;;;;;;0.50;0.40;;;;;;;25.82;74.18;100723.47;4982965;28;20483;-54
2021/06/09 08:23:50;;;;;;;0.50;0.30;;;;;;;25.88;73.65;100716.59;4975193;28;20421;-54
2021/06/09 08:26:20;;;;;;;0.47;0.23;;;;;;;26.25;74.23;100714.28;4987707;28;20499;-55
2021/06/09 08:28:47;;;;;;;0.63;0.57;;;;;;;26.03;74.91;100718.00;4993723;28;20448;-54
2021/06/09 08:31:18;;;;;;;0.60;0.60;;;;;;;26.01;74.63;100716.41;4980334;28;20429;-55
2021/06/09 08:33:46;;;;;;;0.50;0.30;;;;;;;26.04;75.53;100711.59;4974642;28;20815;-54
2021/06/09 08:36:14;;;;;;;1.17;1.17;;;;;;;25.46;74.88;100715.63;4989788;28;20490;-54
2021/06/09 08:38:43;;;;;;;0.50;0.30;;;;;;;25.28;76.11;100715.34;4985056;28;20448;-54
2021/06/09 08:41:12;;;;;;;0.50;0.47;;;;;;;26.06;75.64;100711.47;4977329;28;20461;-54
2021/06/09 08:43:46;;;;;;;0.60;0.60;;;;;;;25.84;74.19;100709.69;4993869;28;20432;-54
2021/06/09 08:46:15;;;;;;;2.10;0.67;;;;;;;25.83;72.33;100705.25;4990185;28;21000;-53
2021/06/09 08:48:44;;;;;;;1.87;1.77;;;;;;;25.79;75.45;100707.38;4985279;28;20994;-53
2021/06/09 08:51:15;;;;;;;0.50;0.40;;;;;;;25.84;73.24;100715.16;4980658;28;20454;-53
2021/06/09 08:53:47;;;;;;;0.50;0.30;;;;;;;25.73;72.79;100717.91;4981550;28;21011;-53
2021/06/09 08:56:15;;;;;;;0.50;0.30;;;;;;;26.57;72.54;100708.75;4987583;28;20948;-54
2021/06/09 08:58:43;;;;;;;0.50;0.30;;;;;;;26.12;74.43;100713.63;4987024;28;20451;-54
2021/06/09 09:01:12;;;;;;;0.67;0.60;;;;;;;26.50;73.03;100711.19;4980824;28;20458;-54
2021/06/09 09:03:44;;;;;;;3.60;0.83;;;;;;;26.67;70.83;100715.13;4980262;28;20974;-54
2021/06/09 09:06:11;;;;;;;0.50;0.30;;;;;;;26.53;70.96;100700.00;4985880;28;20501;-53
2021/06/09 09:08:38;;;;;;;0.50;0.30;;;;;;;26.58;68.85;100705.03;4986116;28;20469;-54
2021/06/09 09:11:05;;;;;;;0.50;0.30;;;;;;;26.40;71.15;100706.66;4982348;28;20428;-53
2021/06/09 09:13:33;;;;;;;1.43;1.43;;;;;;;25.97;70.43;100703.06;5010847;28;21031;-53
2021/06/09 09:16:00;;;;;;;0.50;0.30;;;;;;;25.80;71.15;100708.25;4982431;28;20909;-54
2021/06/09 09:19:05;;;;;;;0.50;0.30;;;;;;;26.23;72.24;100700.81;4980006;28;20483;-53
2021/06/09 09:21:42;;;;;;;0.80;0.80;;;;;;;26.26;71.47;100700.53;4980386;28;20472;-53
2021/06/09 09:24:12;;;;;;;2.30;2.20;;;;;;;26.63;69.69;100705.50;4984234;28;20927;-53
2021/06/09 09:26:43;;;;;;;2.73;0.87;;;;;;;27.11;69.13;100696.63;4986557;28;20487;-53
2021/06/09 09:29:21;;;;;;;2.40;0.70;;;;;;;27.71;67.56;100711.13;4984342;28;20492;-53
2021/06/09 09:31:56;;;;;;;0.50;0.30;;;;;;;27.09;66.08;100709.56;4979900;28;20965;-54
2021/06/09 09:34:29;;;;;;;0.50;0.33;;;;;;;26.52;69.25;100705.56;4980222;28;20535;-53
2021/06/09 09:37:19;;;;;;;0.50;0.40;;;;;;;26.51;67.02;100703.84;4992998;28;21253;-53
2021/06/09 09:39:48;;;;;;;0.50;0.40;;;;;;;26.96;66.61;100708.91;4979626;28;20888;-53
2021/06/09 09:42:19;;;;;;;0.90;0.90;;;;;;;27.30;63.15;100715.78;4997072;28;20433;-53
2021/06/09 09:44:47;;;;;;;0.43;0.30;;;;;;;26.80;64.84;100714.88;4986582;28;20483;-53
2021/06/09 09:47:23;;;;;;;0.50;0.30;;;;;;;26.31;65.97;100716.47;4985378;28;20984;-53
2021/06/09 09:49:51;;;;;;;0.50;0.33;;;;;;;27.36;65.35;100709.75;4985936;28;20516;-53
2021/06/09 09:52:18;;;;;;;0.50;0.50;;;;;;;27.42;63.88;100713.81;4986265;28;20945;-54
2021/06/09 09:55:04;;;;;;;0.50;0.30;;;;;;;27.99;63.53;100710.25;4983176;28;21012;-54
2021/06/09 09:57:35;;;;;;;0.50;0.40;;;;;;;28.09;60.79;100715.66;4979660;28;20505;-54
2021/06/09 10:00:05;;;;;;;0.50;0.30;;;;;;;28.28;60.29;100710.22;4981917;28;20484;-54
2021/06/09 10:02:32;;;;;;;0.63;0.60;;;;;;;27.62;60.88;100712.81;4986061;28;20455;-54
2021/06/09 10:05:10;;;;;;;1.73;1.10;;;;;;;27.79;62.87;100708.50;4984586;28;20496;-54
2021/06/09 10:07:38;;;;;;;0.60;0.60;;;;;;;27.37;64.88;100707.88;4986095;28;20875;-54
2021/06/09 10:10:07;;;;;;;0.50;0.40;;;;;;;27.43;64.22;100705.47;4986292;28;20532;-53
2021/06/09 10:12:33;;;;;;;0.50;0.30;;;;;;;26.84;65.49;100706.28;4980181;28;20458;-53
2021/06/09 10:15:00;;;;;;;0.50;0.40;;;;;;;26.82;64.95;100713.75;4980285;28;20573;-54
2021/06/09 10:17:29;;;;;;;0.50;0.30;;;;;;;26.46;66.69;100701.53;4986223;28;20454;-53
2021/06/09 10:20:05;;;;;;;0.70;0.70;;;;;;;26.57;67.38;100706.03;4988082;28;20556;-53
2021/06/09 10:22:36;;;;;;;0.50;0.40;;;;;;;26.66;67.30;100707.06;4986418;28;20547;-53
2021/06/09 10:25:11;;;;;;;0.40;0.30;;;;;;;26.99;63.35;100705.91;4984273;28;20473;-53
2021/06/09 10:27:58;;;;;;;0.50;0.30;;;;;;;26.95;63.20;100701.72;4988414;28;20453;-53
2021/06/09 10:30:27;;;;;;;0.50;0.30;;;;;;;26.55;64.11;100695.25;4984387;28;20441;-52
2021/06/09 10:33:00;;;;;;;0.50;0.50;;;;;;;26.87;63.60;100699.72;4983051;28;20844;-53
2021/06/09 10:35:38;;;;;;;0.60;0.50;;;;;;;27.25;62.43;100689.91;4987459;28;20960;-53
2021/06/09 10:38:05;;;;;;;0.60;0.60;;;;;;;27.37;61.60;100694.22;4990780;28;20525;-53
2021/06/09 10:40:34;;;;;;;1.50;1.50;;;;;;;27.03;62.60;100685.56;4987429;28;20456;-54
2021/06/09 10:43:05;;;;;;;0.50;0.40;;;;;;;27.55;61.60;100688.91;4983217;28;21008;-53
2021/06/09 10:45:32;;;;;;;0.50;0.37;;;;;;;27.58;62.28;100689.53;4984296;28;20492;-53
2021/06/09 10:48:04;;;;;;;0.50;0.30;;;;;;;27.67;64.03;100688.66;4989389;28;20516;-53
2021/06/09 10:50:31;;;;;;;0.50;0.30;;;;;;;27.50;63.93;100692.09;4989095;28;20865;-54
2021/06/09 10:52:58;;;;;;;0.90;0.60;;;;;;;28.42;63.38;100694.34;4989178;28;20484;-53
2021/06/09 10:55:25;;;;;;;0.50;0.30;;;;;;;28.37;60.20;100691.19;5004341;28;21185;-53
2021/06/09 10:57:52;;;;;;;1.33;1.33;;;;;;;28.75;59.38;100696.50;4983118;28;20449;-53
2021/06/09 11:00:20;;;;;;;0.50;0.30;;;;;;;28.09;62.31;100695.66;4982553;28;20429;-54
2021/06/09 11:02:48;;;;;;;0.70;0.70;;;;;;;27.69;60.53;100699.47;5003472;28;20461;-53
2021/06/09 11:05:16;;;;;;;0.70;0.70;;;;;;;28.13;57.64;100700.72;4989128;28;20947;-54
2021/06/09 11:07:45;;;;;;;1.27;0.70;;;;;;;27.94;56.34;100693.38;4984207;28;20508;-53
2021/06/09 11:10:37;;;;;;;0.50;0.43;;;;;;;27.66;56.73;100702.47;4982780;28;20544;-53
2021/06/09 11:13:06;;;;;;;0.50;0.30;;;;;;;28.10;57.27;100691.94;4983769;28;20454;-53
2021/06/09 11:15:35;;;;;;;0.73;0.73;;;;;;;28.32;57.40;100692.50;4989038;28;20867;-53
2021/06/09 11:18:14;;;;;;;0.67;0.60;;;;;;;27.93;57.00;100699.00;4988810;28;20487;-53
2021/06/09 11:20:45;;;;;;;0.50;0.40;;;;;;;27.68;54.41;100695.00;4987726;28;20458;-53
2021/06/09 11:23:24;;;;;;;0.50;0.30;;;;;;;27.48;56.19;100690.50;4987372;28;20465;-53
2021/06/09 11:25:51;;;;;;;0.57;0.50;;;;;;;27.13;57.40;100684.56;5000575;28;21008;-53
2021/06/09 11:28:32;;;;;;;0.50;0.30;;;;;;;27.35;56.08;100682.59;4985676;28;20472;-53
2021/06/09 11:31:09;;;;;;;0.50;0.30;;;;;;;27.25;57.53;100671.66;5001837;28;20443;-54
2021/06/09 11:33:52;;;;;;;0.50;0.40;;;;;;;27.11;56.93;100680.25;4988205;28;20470;-53
2021/06/09 11:36:19;;;;;;;0.50;0.30;;;;;;;28.23;57.15;100678.81;4991206;28;20453;-53